This is the latest recevied weather packets stored in our database for station/object VK6DUG. If no packets are shown the sender has not sent any weather packets the latest 10 day(s).
| Time | Temp. | Humidity | Pressure | Rain* | Wind** | Luminosity | Snow |
|---|---|---|---|---|---|---|---|
| 1777810225 | 13.89° C | 78% | 1029.1 hPa | 0 mm | - | 0 W/m² | - |
| 1777809622 | 14.44° C | 77% | 1029.1 hPa | 0 mm | - | 0 W/m² | - |
| 1777809019 | 14.44° C | 77% | 1029.2 hPa | 0 mm | - | 0 W/m² | - |
| 1777808417 | 15° C | 77% | 1029.1 hPa | 0 mm | - | 0 W/m² | - |
| 1777807834 | 14.44° C | 78% | 1029 hPa | 0 mm | - | 0 W/m² | - |
| 1777807230 | 14.44° C | 80% | 1028.9 hPa | 0 mm | - | 0 W/m² | - |
| 1777806627 | 13.89° C | 81% | 1028.8 hPa | 0 mm | - | 0 W/m² | - |
| 1777806023 | 14.44° C | 82% | 1028.7 hPa | 0 mm | - | 0 W/m² | - |
| 1777805420 | 14.44° C | 82% | 1028.7 hPa | 0 mm | - | 0 W/m² | - |
| 1777804817 | 14.44° C | 81% | 1028.5 hPa | 0 mm | - | 0 W/m² | - |
| 1777804234 | 15.56° C | 78% | 1028.5 hPa | 0 mm | - | 0 W/m² | - |
| 1777803631 | 15.56° C | 77% | 1028.3 hPa | 0 mm | - | 0 W/m² | - |
| 1777803029 | 16.11° C | 77% | 1028.2 hPa | 0 mm | - | 0 W/m² | - |
| 1777802425 | 16.67° C | 76% | 1028.1 hPa | 0 mm | - | 0 W/m² | - |
| 1777801822 | 16.67° C | 74% | 1028 hPa | 0 mm | - | 1 W/m² | - |
| 1777801219 | 17.78° C | 73% | 1028 hPa | 0 mm | - | 4 W/m² | - |
| 1777800635 | 17.78° C | 73% | 1027.9 hPa | 0 mm | - | 10 W/m² | - |
| 1777800032 | 18.33° C | 72% | 1027.9 hPa | 0 mm | - | 16 W/m² | - |
| 1777799429 | 18.33° C | 71% | 1027.9 hPa | 0 mm | - | 24 W/m² | - |
| 1777798826 | 18.33° C | 71% | 1027.7 hPa | 0 mm | - | 34 W/m² | - |
| 1777798223 | 18.33° C | 71% | 1027.6 hPa | 0 mm | - | 33 W/m² | - |
| 1777797620 | 18.89° C | 70% | 1027.7 hPa | 0 mm | - | 59 W/m² | - |
| 1777797017 | 18.89° C | 69% | 1027.6 hPa | 0 mm | - | 77 W/m² | - |
| 1777796434 | 18.89° C | 69% | 1027.8 hPa | 0 mm | - | 114 W/m² | - |
| 1777795832 | 18.89° C | 69% | 1027.7 hPa | 0 mm | - | 144 W/m² | - |
* Rain latest hour (hover to see other rain measurements)
** Current wind speed in m/s (hover to see current wind gust speed)